FBZ5004 SABE-SACO
Flight info
| Callsign | FBZ5004 |
|---|---|
| Flight time | 1h 11m |
| Altitude | 36000 |
| Route | ATOVO4B ATOVO UW5 ASISA ASISA1U |
| Aircraft | B738/M-MSDFGHILRVWS/LB1 |
Departure
| Time | 2026-04-26 22:51 |
|---|---|
| Airport | Aeroparque Jorge Newbery (SABE) |
Arrival
| Time | 2026-04-27 00:02 |
|---|---|
| Airport | Ingeniero Aeronáutico Ambrosio L.V. Taravella International Airport (SACO) |
| Time | Latitude | Longitude | Altitude | Speed | Heading |
|---|---|---|---|---|---|
| 2026-04-26 22:13 | -34.55681 | -58.41486 | 26 ft | 0 kts | 11° |
| 2026-04-26 22:40 | -34.55689 | -58.41487 | 26 ft | 2 kts | 11° |
| 2026-04-26 22:41 | -34.55706 | -58.41491 | 26 ft | 3 kts | 357° |
| 2026-04-26 22:41 | -34.55723 | -58.41486 | 26 ft | 3 kts | 320° |
| 2026-04-26 22:41 | -34.55735 | -58.41470 | 26 ft | 1 kts | 298° |
| 2026-04-26 22:41 | -34.55736 | -58.41467 | 26 ft | 0 kts | 298° |
| 2026-04-26 22:43 | -34.55736 | -58.41468 | 26 ft | 1 kts | 298° |
| 2026-04-26 22:44 | -34.55726 | -58.41491 | 26 ft | 3 kts | 298° |
| 2026-04-26 22:44 | -34.55717 | -58.41516 | 26 ft | 3 kts | 284° |
| 2026-04-26 22:44 | -34.55723 | -58.41547 | 26 ft | 7 kts | 234° |
| 2026-04-26 22:44 | -34.55755 | -58.41578 | 26 ft | 6 kts | 217° |
| 2026-04-26 22:45 | -34.55792 | -58.41591 | 26 ft | 8 kts | 146° |
| 2026-04-26 22:45 | -34.55839 | -58.41498 | 26 ft | 14 kts | 117° |
| 2026-04-26 22:45 | -34.55881 | -58.41396 | 26 ft | 13 kts | 117° |
| 2026-04-26 22:45 | -34.55921 | -58.41301 | 26 ft | 12 kts | 117° |
| 2026-04-26 22:46 | -34.55972 | -58.41218 | 26 ft | 12 kts | 127° |
| 2026-04-26 22:46 | -34.56020 | -58.41138 | 26 ft | 11 kts | 127° |
| 2026-04-26 22:46 | -34.56069 | -58.41062 | 26 ft | 11 kts | 128° |
| 2026-04-26 22:46 | -34.56109 | -58.40998 | 26 ft | 9 kts | 125° |
| 2026-04-26 22:47 | -34.56143 | -58.40937 | 26 ft | 9 kts | 124° |
| 2026-04-26 22:47 | -34.56168 | -58.40875 | 26 ft | 8 kts | 89° |
| 2026-04-26 22:47 | -34.56178 | -58.40811 | 26 ft | 8 kts | 123° |
| 2026-04-26 22:47 | -34.56208 | -58.40757 | 26 ft | 7 kts | 123° |
| 2026-04-26 22:48 | -34.56236 | -58.40705 | 26 ft | 7 kts | 123° |
| 2026-04-26 22:48 | -34.56263 | -58.40656 | 26 ft | 8 kts | 124° |
| 2026-04-26 22:48 | -34.56302 | -58.40588 | 26 ft | 10 kts | 128° |
| 2026-04-26 22:48 | -34.56349 | -58.40533 | 26 ft | 9 kts | 138° |
| 2026-04-26 22:49 | -34.56396 | -58.40482 | 26 ft | 9 kts | 138° |
| 2026-04-26 22:49 | -34.56442 | -58.40433 | 26 ft | 9 kts | 138° |
| 2026-04-26 22:49 | -34.56485 | -58.40386 | 26 ft | 8 kts | 140° |
| 2026-04-26 22:49 | -34.56536 | -58.40386 | 26 ft | 8 kts | 218° |
| 2026-04-26 22:50 | -34.56558 | -58.40436 | 26 ft | 6 kts | 299° |
| 2026-04-26 22:50 | -34.56554 | -58.40443 | 26 ft | 0 kts | 304° |
| 2026-04-26 22:50 | -34.56492 | -58.40555 | 26 ft | 43 kts | 304° |
| 2026-04-26 22:50 | -34.56197 | -58.41084 | 26 ft | 106 kts | 304° |
| 2026-04-26 22:51 | -34.55687 | -58.41995 | 63 ft | 151 kts | 304° |
| 2026-04-26 22:51 | -34.55085 | -58.43050 | 587 ft | 159 kts | 305° |
| 2026-04-26 22:51 | -34.54328 | -58.44087 | 1306 ft | 172 kts | 313° |
| 2026-04-26 22:51 | -34.53143 | -58.44547 | 2021 ft | 186 kts | 352° |
| 2026-04-26 22:52 | -34.51887 | -58.44199 | 2796 ft | 188 kts | 16° |
| 2026-04-26 22:52 | -34.50808 | -58.43281 | 3411 ft | 195 kts | 30° |
| 2026-04-26 22:52 | -34.49689 | -58.42190 | 3729 ft | 217 kts | 31° |
| 2026-04-26 22:52 | -34.48493 | -58.40987 | 4215 ft | 231 kts | 32° |
| 2026-04-26 22:53 | -34.47214 | -58.39699 | 4669 ft | 247 kts | 32° |
| 2026-04-26 22:53 | -34.45849 | -58.38328 | 5057 ft | 265 kts | 32° |
| 2026-04-26 22:53 | -34.44372 | -58.36853 | 5428 ft | 284 kts | 32° |
| 2026-04-26 22:53 | -34.42720 | -58.35445 | 5775 ft | 294 kts | 17° |
| 2026-04-26 22:54 | -34.40791 | -58.34840 | 6345 ft | 279 kts | 349° |
| 2026-04-26 22:54 | -34.38978 | -58.35212 | 7104 ft | 254 kts | 325° |
| 2026-04-26 22:54 | -34.37441 | -58.36157 | 7918 ft | 242 kts | 314° |
| 2026-04-26 22:54 | -34.36037 | -58.37276 | 8736 ft | 240 kts | 312° |
| 2026-04-26 22:55 | -34.34663 | -58.38400 | 9537 ft | 238 kts | 311° |
| 2026-04-26 22:55 | -34.33308 | -58.39508 | 10305 ft | 238 kts | 310° |
| 2026-04-26 22:55 | -34.31926 | -58.40635 | 10956 ft | 244 kts | 310° |
| 2026-04-26 22:55 | -34.30474 | -58.41815 | 11327 ft | 260 kts | 311° |
| 2026-04-26 22:56 | -34.28989 | -58.43160 | 11594 ft | 268 kts | 303° |
| 2026-04-26 22:56 | -34.27861 | -58.44945 | 11858 ft | 270 kts | 291° |
| 2026-04-26 22:56 | -34.27100 | -58.47025 | 12244 ft | 274 kts | 283° |
| 2026-04-26 22:56 | -34.26430 | -58.49200 | 12950 ft | 276 kts | 283° |
| 2026-04-26 22:57 | -34.25767 | -58.51367 | 13763 ft | 275 kts | 283° |
| 2026-04-26 22:57 | -34.25098 | -58.53549 | 14421 ft | 279 kts | 283° |
| 2026-04-26 22:57 | -34.24419 | -58.55763 | 15064 ft | 283 kts | 283° |
| 2026-04-26 22:57 | -34.23729 | -58.58008 | 15719 ft | 286 kts | 283° |
| 2026-04-26 22:58 | -34.23033 | -58.60270 | 16351 ft | 289 kts | 283° |
| 2026-04-26 22:58 | -34.22329 | -58.62559 | 16966 ft | 293 kts | 283° |
| 2026-04-26 22:58 | -34.21617 | -58.64871 | 17564 ft | 296 kts | 283° |
| 2026-04-26 22:58 | -34.20893 | -58.67218 | 18148 ft | 299 kts | 283° |
| 2026-04-26 22:59 | -34.20159 | -58.69597 | 18705 ft | 303 kts | 283° |
| 2026-04-26 22:59 | -34.19417 | -58.72002 | 19244 ft | 307 kts | 283° |
| 2026-04-26 22:59 | -34.18669 | -58.74422 | 19775 ft | 310 kts | 283° |
| 2026-04-26 22:59 | -34.17909 | -58.76883 | 20292 ft | 314 kts | 283° |
| 2026-04-26 23:00 | -34.17155 | -58.79358 | 20792 ft | 316 kts | 283° |
| 2026-04-26 23:00 | -34.16406 | -58.81885 | 21277 ft | 320 kts | 283° |
| 2026-04-26 23:00 | -34.15650 | -58.84385 | 21743 ft | 323 kts | 283° |
| 2026-04-26 23:00 | -34.14858 | -58.86972 | 22204 ft | 327 kts | 283° |
| 2026-04-26 23:01 | -34.14334 | -58.88673 | 22501 ft | 329 kts | 284° |
| 2026-04-26 23:01 | -34.13524 | -58.91288 | 22938 ft | 332 kts | 284° |
| 2026-04-26 23:01 | -34.12570 | -58.93864 | 23360 ft | 341 kts | 290° |
| 2026-04-26 23:01 | -34.11320 | -58.96315 | 23777 ft | 349 kts | 295° |
| 2026-04-26 23:02 | -34.09942 | -58.98750 | 24189 ft | 352 kts | 295° |
| 2026-04-26 23:02 | -34.08072 | -59.01977 | 24718 ft | 356 kts | 296° |
| 2026-04-26 23:02 | -34.07123 | -59.03609 | 24974 ft | 358 kts | 296° |
| 2026-04-26 23:02 | -34.05692 | -59.06068 | 25350 ft | 360 kts | 296° |
| 2026-04-26 23:03 | -34.04232 | -59.08576 | 25722 ft | 363 kts | 296° |
| 2026-04-26 23:03 | -34.02787 | -59.11056 | 26070 ft | 365 kts | 296° |
| 2026-04-26 23:03 | -34.01326 | -59.13563 | 26411 ft | 368 kts | 296° |
| 2026-04-26 23:03 | -33.99825 | -59.16134 | 26749 ft | 370 kts | 296° |
| 2026-04-26 23:04 | -33.98357 | -59.18650 | 27067 ft | 372 kts | 296° |
| 2026-04-26 23:04 | -33.96864 | -59.21205 | 27382 ft | 375 kts | 296° |
| 2026-04-26 23:04 | -33.95364 | -59.23770 | 27687 ft | 377 kts | 296° |
| 2026-04-26 23:04 | -33.93847 | -59.26363 | 27983 ft | 379 kts | 297° |
| 2026-04-26 23:05 | -33.92308 | -59.28992 | 28276 ft | 381 kts | 297° |
| 2026-04-26 23:05 | -33.90783 | -59.31596 | 28640 ft | 381 kts | 297° |
| 2026-04-26 23:05 | -33.89275 | -59.34203 | 29081 ft | 378 kts | 296° |
| 2026-04-26 23:05 | -33.87787 | -59.36781 | 29464 ft | 378 kts | 296° |
| 2026-04-26 23:06 | -33.86270 | -59.39399 | 29847 ft | 377 kts | 297° |
| 2026-04-26 23:06 | -33.84770 | -59.41980 | 30201 ft | 377 kts | 297° |
| 2026-04-26 23:06 | -33.83260 | -59.44570 | 30472 ft | 379 kts | 297° |
| 2026-04-26 23:06 | -33.81761 | -59.47138 | 30771 ft | 380 kts | 297° |
| 2026-04-26 23:07 | -33.80224 | -59.49767 | 31065 ft | 381 kts | 297° |
| 2026-04-26 23:07 | -33.78690 | -59.52386 | 31355 ft | 382 kts | 297° |
| 2026-04-26 23:07 | -33.77161 | -59.54995 | 31638 ft | 383 kts | 298° |
| 2026-04-26 23:07 | -33.75645 | -59.57577 | 31914 ft | 383 kts | 298° |
| 2026-04-26 23:08 | -33.74107 | -59.60196 | 32189 ft | 384 kts | 298° |
| 2026-04-26 23:08 | -33.72564 | -59.62822 | 32461 ft | 385 kts | 298° |
| 2026-04-26 23:08 | -33.71020 | -59.65445 | 32727 ft | 386 kts | 298° |
| 2026-04-26 23:08 | -33.69463 | -59.68090 | 32991 ft | 387 kts | 298° |
| 2026-04-26 23:09 | -33.67905 | -59.70734 | 33251 ft | 388 kts | 298° |
| 2026-04-26 23:09 | -33.66349 | -59.73372 | 33506 ft | 388 kts | 298° |
| 2026-04-26 23:09 | -33.64780 | -59.76031 | 33758 ft | 389 kts | 299° |
| 2026-04-26 23:09 | -33.63218 | -59.78676 | 34006 ft | 390 kts | 299° |
| 2026-04-26 23:10 | -33.61649 | -59.81331 | 34250 ft | 391 kts | 299° |
| 2026-04-26 23:10 | -33.60073 | -59.83995 | 34492 ft | 392 kts | 299° |
| 2026-04-26 23:10 | -33.58492 | -59.86667 | 34730 ft | 392 kts | 299° |
| 2026-04-26 23:10 | -33.56909 | -59.89339 | 34965 ft | 393 kts | 299° |
| 2026-04-26 23:11 | -33.55313 | -59.92031 | 35171 ft | 395 kts | 300° |
| 2026-04-26 23:11 | -33.53727 | -59.94705 | 35405 ft | 395 kts | 300° |
| 2026-04-26 23:11 | -33.52132 | -59.97392 | 35636 ft | 396 kts | 300° |
| 2026-04-26 23:11 | -33.50541 | -60.00070 | 35858 ft | 396 kts | 300° |
| 2026-04-26 23:12 | -33.48950 | -60.02746 | 35959 ft | 399 kts | 300° |
| 2026-04-26 23:12 | -33.45714 | -60.08183 | 35964 ft | 397 kts | 300° |
| 2026-04-26 23:13 | -33.42528 | -60.13529 | 35964 ft | 396 kts | 300° |
| 2026-04-26 23:13 | -33.39331 | -60.18886 | 35965 ft | 396 kts | 300° |
| 2026-04-26 23:14 | -33.36125 | -60.24248 | 35964 ft | 396 kts | 300° |
| 2026-04-26 23:14 | -33.32903 | -60.29632 | 35998 ft | 393 kts | 299° |
| 2026-04-26 23:15 | -33.29735 | -60.34916 | 36016 ft | 393 kts | 299° |
| 2026-04-26 23:15 | -33.26550 | -60.40221 | 36023 ft | 393 kts | 299° |
| 2026-04-26 23:16 | -33.23358 | -60.45530 | 36023 ft | 393 kts | 299° |
| 2026-04-26 23:16 | -33.20166 | -60.50832 | 36024 ft | 393 kts | 299° |
| 2026-04-26 23:17 | -33.16971 | -60.56131 | 36024 ft | 393 kts | 299° |
| 2026-04-26 23:17 | -33.13768 | -60.61435 | 36024 ft | 393 kts | 299° |
| 2026-04-26 23:18 | -33.10565 | -60.66733 | 36024 ft | 393 kts | 299° |
| 2026-04-26 23:18 | -33.07354 | -60.72035 | 36024 ft | 393 kts | 299° |
| 2026-04-26 23:19 | -33.04149 | -60.77320 | 36023 ft | 394 kts | 299° |
| 2026-04-26 23:19 | -33.00941 | -60.82603 | 36024 ft | 394 kts | 299° |
| 2026-04-26 23:20 | -32.97726 | -60.87891 | 36024 ft | 394 kts | 299° |
| 2026-04-26 23:20 | -32.94529 | -60.93140 | 36024 ft | 394 kts | 299° |
| 2026-04-26 23:21 | -32.91310 | -60.98418 | 36024 ft | 394 kts | 299° |
| 2026-04-26 23:21 | -32.88100 | -61.03675 | 36023 ft | 394 kts | 299° |
| 2026-04-26 23:22 | -32.84879 | -61.08940 | 36023 ft | 394 kts | 299° |
| 2026-04-26 23:22 | -32.81648 | -61.14217 | 36023 ft | 394 kts | 300° |
| 2026-04-26 23:23 | -32.78422 | -61.19477 | 36024 ft | 394 kts | 300° |
| 2026-04-26 23:23 | -32.75191 | -61.24738 | 36024 ft | 394 kts | 300° |
| 2026-04-26 23:24 | -32.71960 | -61.29992 | 36024 ft | 394 kts | 300° |
| 2026-04-26 23:24 | -32.68727 | -61.35242 | 36024 ft | 394 kts | 300° |
| 2026-04-26 23:25 | -32.65494 | -61.40482 | 36024 ft | 394 kts | 300° |
| 2026-04-26 23:25 | -32.62254 | -61.45728 | 36024 ft | 394 kts | 300° |
| 2026-04-26 23:26 | -32.59033 | -61.50937 | 36023 ft | 394 kts | 300° |
| 2026-04-26 23:26 | -32.55794 | -61.56168 | 36023 ft | 394 kts | 300° |
| 2026-04-26 23:27 | -32.52562 | -61.61397 | 36023 ft | 393 kts | 300° |
| 2026-04-26 23:27 | -32.49324 | -61.66634 | 36023 ft | 394 kts | 300° |
| 2026-04-26 23:28 | -32.46072 | -61.71856 | 36024 ft | 394 kts | 300° |
| 2026-04-26 23:28 | -32.42815 | -61.77071 | 36024 ft | 394 kts | 300° |
| 2026-04-26 23:29 | -32.39555 | -61.82284 | 36024 ft | 394 kts | 300° |
| 2026-04-26 23:29 | -32.36292 | -61.87496 | 36054 ft | 394 kts | 300° |
| 2026-04-26 23:30 | -32.33112 | -61.92764 | 36100 ft | 392 kts | 296° |
| 2026-04-26 23:30 | -32.30305 | -61.98268 | 36119 ft | 391 kts | 295° |
| 2026-04-26 23:31 | -32.27549 | -62.03762 | 36128 ft | 391 kts | 295° |
| 2026-04-26 23:31 | -32.24735 | -62.09303 | 36129 ft | 391 kts | 295° |
| 2026-04-26 23:32 | -32.21927 | -62.14800 | 36129 ft | 391 kts | 295° |
| 2026-04-26 23:32 | -32.19114 | -62.20288 | 36129 ft | 391 kts | 295° |
| 2026-04-26 23:33 | -32.16317 | -62.25736 | 36131 ft | 391 kts | 295° |
| 2026-04-26 23:33 | -32.13525 | -62.31246 | 36132 ft | 391 kts | 295° |
| 2026-04-26 23:34 | -32.10718 | -62.36742 | 36137 ft | 391 kts | 295° |
| 2026-04-26 23:34 | -32.07906 | -62.42223 | 36141 ft | 391 kts | 295° |
| 2026-04-26 23:35 | -32.05082 | -62.47712 | 35976 ft | 393 kts | 295° |
| 2026-04-26 23:35 | -32.03666 | -62.50460 | 35551 ft | 392 kts | 295° |
| 2026-04-26 23:35 | -32.02254 | -62.53197 | 35059 ft | 387 kts | 295° |
| 2026-04-26 23:35 | -32.00864 | -62.55891 | 34581 ft | 382 kts | 295° |
| 2026-04-26 23:36 | -31.99488 | -62.58553 | 34110 ft | 378 kts | 295° |
| 2026-04-26 23:36 | -31.98134 | -62.61173 | 33651 ft | 373 kts | 295° |
| 2026-04-26 23:36 | -31.96799 | -62.63755 | 33200 ft | 368 kts | 294° |
| 2026-04-26 23:36 | -31.95466 | -62.66330 | 32752 ft | 364 kts | 294° |
| 2026-04-26 23:37 | -31.94173 | -62.68825 | 32318 ft | 359 kts | 294° |
| 2026-04-26 23:37 | -31.92884 | -62.71313 | 31889 ft | 354 kts | 294° |
| 2026-04-26 23:37 | -31.91595 | -62.73797 | 31469 ft | 349 kts | 294° |
| 2026-04-26 23:37 | -31.90351 | -62.76194 | 31058 ft | 344 kts | 294° |
| 2026-04-26 23:38 | -31.89100 | -62.78603 | 30650 ft | 339 kts | 293° |
| 2026-04-26 23:38 | -31.87876 | -62.80958 | 30239 ft | 335 kts | 293° |
| 2026-04-26 23:38 | -31.86681 | -62.83257 | 29840 ft | 331 kts | 293° |
| 2026-04-26 23:38 | -31.85487 | -62.85552 | 29440 ft | 327 kts | 293° |
| 2026-04-26 23:39 | -31.84305 | -62.87823 | 29038 ft | 324 kts | 293° |
| 2026-04-26 23:39 | -31.83142 | -62.90076 | 28639 ft | 321 kts | 292° |
| 2026-04-26 23:39 | -31.81971 | -62.92346 | 28234 ft | 318 kts | 293° |
| 2026-04-26 23:39 | -31.80842 | -62.94522 | 27843 ft | 315 kts | 293° |
| 2026-04-26 23:40 | -31.79698 | -62.96716 | 27449 ft | 313 kts | 293° |
| 2026-04-26 23:40 | -31.78569 | -62.98878 | 27057 ft | 311 kts | 293° |
| 2026-04-26 23:40 | -31.77434 | -63.01045 | 26664 ft | 309 kts | 293° |
| 2026-04-26 23:40 | -31.76315 | -63.03180 | 26275 ft | 307 kts | 293° |
| 2026-04-26 23:41 | -31.75194 | -63.05317 | 25884 ft | 305 kts | 293° |
| 2026-04-26 23:41 | -31.74089 | -63.07422 | 25498 ft | 303 kts | 293° |
| 2026-04-26 23:41 | -31.72980 | -63.09534 | 25108 ft | 302 kts | 293° |
| 2026-04-26 23:41 | -31.71881 | -63.11626 | 24722 ft | 302 kts | 293° |
| 2026-04-26 23:42 | -31.70760 | -63.13761 | 24331 ft | 310 kts | 293° |
| 2026-04-26 23:42 | -31.68448 | -63.18157 | 23517 ft | 319 kts | 294° |
| 2026-04-26 23:42 | -31.67286 | -63.20369 | 23107 ft | 318 kts | 293° |
| 2026-04-26 23:43 | -31.66071 | -63.22552 | 22701 ft | 319 kts | 296° |
| 2026-04-26 23:43 | -31.64765 | -63.24614 | 22303 ft | 319 kts | 298° |
| 2026-04-26 23:43 | -31.63399 | -63.26646 | 21902 ft | 318 kts | 299° |
| 2026-04-26 23:43 | -31.62025 | -63.28674 | 21501 ft | 315 kts | 299° |
| 2026-04-26 23:44 | -31.60668 | -63.30694 | 21105 ft | 313 kts | 299° |
| 2026-04-26 23:44 | -31.59332 | -63.32694 | 20713 ft | 311 kts | 299° |
| 2026-04-26 23:44 | -31.58004 | -63.34688 | 20324 ft | 309 kts | 298° |
| 2026-04-26 23:44 | -31.56685 | -63.36669 | 19935 ft | 307 kts | 298° |
| 2026-04-26 23:45 | -31.55380 | -63.38633 | 19550 ft | 305 kts | 298° |
| 2026-04-26 23:45 | -31.54518 | -63.39930 | 19295 ft | 303 kts | 298° |
| 2026-04-26 23:45 | -31.52792 | -63.42527 | 18787 ft | 300 kts | 298° |
| 2026-04-26 23:45 | -31.51513 | -63.44452 | 18409 ft | 298 kts | 298° |
| 2026-04-26 23:46 | -31.50242 | -63.46364 | 18035 ft | 297 kts | 298° |
| 2026-04-26 23:46 | -31.49405 | -63.47623 | 17786 ft | 295 kts | 298° |
| 2026-04-26 23:46 | -31.48147 | -63.49514 | 17413 ft | 294 kts | 298° |
| 2026-04-26 23:46 | -31.46894 | -63.51401 | 17047 ft | 293 kts | 300° |
| 2026-04-26 23:47 | -31.45648 | -63.53279 | 16693 ft | 292 kts | 299° |
| 2026-04-26 23:47 | -31.44405 | -63.55152 | 16332 ft | 291 kts | 300° |
| 2026-04-26 23:47 | -31.43160 | -63.57024 | 15970 ft | 291 kts | 300° |
| 2026-04-26 23:47 | -31.41920 | -63.58887 | 15606 ft | 290 kts | 300° |
| 2026-04-26 23:48 | -31.40680 | -63.60749 | 15242 ft | 290 kts | 300° |
| 2026-04-26 23:48 | -31.39444 | -63.62605 | 14876 ft | 289 kts | 300° |
| 2026-04-26 23:48 | -31.38214 | -63.64466 | 14511 ft | 288 kts | 299° |
| 2026-04-26 23:48 | -31.36989 | -63.66320 | 14147 ft | 288 kts | 300° |
| 2026-04-26 23:49 | -31.35763 | -63.68168 | 13784 ft | 287 kts | 300° |
| 2026-04-26 23:49 | -31.34536 | -63.70011 | 13422 ft | 287 kts | 300° |
| 2026-04-26 23:49 | -31.33311 | -63.71847 | 13061 ft | 286 kts | 301° |
| 2026-04-26 23:49 | -31.32088 | -63.73679 | 12699 ft | 285 kts | 301° |
| 2026-04-26 23:50 | -31.30869 | -63.75501 | 12337 ft | 284 kts | 301° |
| 2026-04-26 23:50 | -31.29651 | -63.77322 | 11975 ft | 283 kts | 301° |
| 2026-04-26 23:50 | -31.28572 | -63.78934 | 11655 ft | 283 kts | 301° |
| 2026-04-26 23:50 | -31.27359 | -63.80745 | 11295 ft | 282 kts | 302° |
| 2026-04-26 23:51 | -31.26154 | -63.82544 | 10939 ft | 281 kts | 302° |
| 2026-04-26 23:51 | -31.24951 | -63.84340 | 10580 ft | 280 kts | 302° |
| 2026-04-26 23:51 | -31.23771 | -63.86100 | 10335 ft | 275 kts | 302° |
| 2026-04-26 23:51 | -31.22616 | -63.87824 | 10262 ft | 265 kts | 302° |
| 2026-04-26 23:52 | -31.21498 | -63.89492 | 10084 ft | 259 kts | 302° |
| 2026-04-26 23:52 | -31.20388 | -63.91149 | 9771 ft | 258 kts | 302° |
| 2026-04-26 23:52 | -31.19286 | -63.92802 | 9448 ft | 258 kts | 302° |
| 2026-04-26 23:52 | -31.18182 | -63.94452 | 9119 ft | 258 kts | 302° |
| 2026-04-26 23:53 | -31.17076 | -63.96102 | 8787 ft | 258 kts | 302° |
| 2026-04-26 23:53 | -31.15972 | -63.97747 | 8449 ft | 258 kts | 302° |
| 2026-04-26 23:53 | -31.14857 | -63.99406 | 8105 ft | 259 kts | 302° |
| 2026-04-26 23:53 | -31.13750 | -64.01052 | 7748 ft | 260 kts | 302° |
| 2026-04-26 23:54 | -31.12614 | -64.02738 | 7189 ft | 268 kts | 302° |
| 2026-04-26 23:54 | -31.11453 | -64.04463 | 6888 ft | 266 kts | 302° |
| 2026-04-26 23:54 | -31.10331 | -64.06129 | 6805 ft | 256 kts | 302° |
| 2026-04-26 23:54 | -31.09251 | -64.07732 | 6735 ft | 246 kts | 302° |
| 2026-04-26 23:55 | -31.08293 | -64.09317 | 6650 ft | 232 kts | 291° |
| 2026-04-26 23:55 | -31.07925 | -64.11080 | 6393 ft | 222 kts | 270° |
| 2026-04-26 23:55 | -31.07995 | -64.12856 | 6238 ft | 214 kts | 263° |
| 2026-04-26 23:55 | -31.08119 | -64.14542 | 6163 ft | 205 kts | 262° |
| 2026-04-26 23:56 | -31.08242 | -64.16175 | 5987 ft | 200 kts | 262° |
| 2026-04-26 23:56 | -31.08363 | -64.17788 | 5735 ft | 199 kts | 262° |
| 2026-04-26 23:56 | -31.08483 | -64.19404 | 5564 ft | 197 kts | 262° |
| 2026-04-26 23:56 | -31.08673 | -64.20937 | 5487 ft | 186 kts | 252° |
| 2026-04-26 23:57 | -31.09437 | -64.22046 | 5294 ft | 182 kts | 212° |
| 2026-04-26 23:57 | -31.10643 | -64.22170 | 5140 ft | 193 kts | 175° |
| 2026-04-26 23:57 | -31.11747 | -64.21760 | 5047 ft | 187 kts | 173° |
| 2026-04-26 23:57 | -31.13010 | -64.21572 | 4745 ft | 178 kts | 184° |
| 2026-04-26 23:58 | -31.14226 | -64.21469 | 4513 ft | 173 kts | 180° |
| 2026-04-26 23:58 | -31.15408 | -64.21331 | 4290 ft | 169 kts | 179° |
| 2026-04-26 23:58 | -31.16560 | -64.21196 | 4088 ft | 163 kts | 179° |
| 2026-04-26 23:58 | -31.17667 | -64.21111 | 3910 ft | 158 kts | 180° |
| 2026-04-26 23:59 | -31.18767 | -64.21069 | 3724 ft | 155 kts | 180° |
| 2026-04-26 23:59 | -31.19832 | -64.21041 | 3511 ft | 151 kts | 180° |
| 2026-04-26 23:59 | -31.20872 | -64.21018 | 3306 ft | 147 kts | 180° |
| 2026-04-26 23:59 | -31.21881 | -64.20999 | 3111 ft | 143 kts | 180° |
| 2026-04-27 00:00 | -31.22861 | -64.20981 | 2925 ft | 140 kts | 180° |
| 2026-04-27 00:00 | -31.23828 | -64.20963 | 2743 ft | 138 kts | 180° |
| 2026-04-27 00:00 | -31.24785 | -64.20946 | 2562 ft | 135 kts | 179° |
| 2026-04-27 00:00 | -31.25729 | -64.20928 | 2378 ft | 138 kts | 179° |
| 2026-04-27 00:01 | -31.26699 | -64.20911 | 2191 ft | 141 kts | 179° |
| 2026-04-27 00:01 | -31.27690 | -64.20883 | 1990 ft | 146 kts | 178° |
| 2026-04-27 00:01 | -31.28706 | -64.20868 | 1839 ft | 146 kts | 180° |
| 2026-04-27 00:01 | -31.29728 | -64.20847 | 1631 ft | 147 kts | 179° |
| 2026-04-27 00:02 | -31.30692 | -64.20835 | 1610 ft | 124 kts | 179° |
| 2026-04-27 00:02 | -31.31319 | -64.20824 | 1609 ft | 56 kts | 179° |
| 2026-04-27 00:02 | -31.31536 | -64.20822 | 1609 ft | 25 kts | 179° |
| 2026-04-27 00:02 | -31.31663 | -64.20843 | 1609 ft | 9 kts | 207° |
| 2026-04-27 00:03 | -31.31716 | -64.20875 | 1609 ft | 8 kts | 209° |
| 2026-04-27 00:03 | -31.31766 | -64.20909 | 1609 ft | 8 kts | 210° |
| 2026-04-27 00:03 | -31.31800 | -64.20962 | 1609 ft | 9 kts | 263° |
| 2026-04-27 00:03 | -31.31790 | -64.21028 | 1609 ft | 9 kts | 305° |
| 2026-04-27 00:04 | -31.31748 | -64.21078 | 1609 ft | 9 kts | 337° |
| 2026-04-27 00:04 | -31.31692 | -64.21095 | 1609 ft | 8 kts | 360° |
| 2026-04-27 00:04 | -31.31637 | -64.21095 | 1609 ft | 8 kts | 360° |
| 2026-04-27 00:04 | -31.31585 | -64.21085 | 1609 ft | 7 kts | 20° |
| 2026-04-27 00:05 | -31.31544 | -64.21092 | 1609 ft | 7 kts | 269° |
| 2026-04-27 00:05 | -31.31549 | -64.21141 | 1609 ft | 3 kts | 268° |
| 2026-04-27 00:05 | -31.31549 | -64.21164 | 1609 ft | 0 kts | 268° |